Terminal Aerodrome Forecast
Issued by NWS Jackson, MS

Home | Current Version | Previous Version | Text Only | Print | Product List | Glossary On
Versions: 1 2 3 4 5 6 7 8 9
420
FTUS44 KJAN 230535
TAFGWO
TAF
KGWO 230535Z 2306/2406 33010KT P6SM BKN015 BKN025
     FM232000 35010G18KT P6SM BKN025
     FM240000 35006KT P6SM SCT050=

USA.gov is the U.S. government's official web portal to all federal, state and local government web resources and services.